sensor_id;sensor_type;location;lat;lon;timestamp;temperature;humidity
54796;DHT22;40693;43.884;20.340;2023-07-22T00:00:50;589.70;2432.00
54796;DHT22;40693;43.884;20.340;2023-07-22T00:03:15;589.70;2432.00
54796;DHT22;40693;43.884;20.340;2023-07-22T00:05:41;589.50;2432.00
54796;DHT22;40693;43.884;20.340;2023-07-22T00:08:07;589.60;2432.00
54796;DHT22;40693;43.884;20.340;2023-07-22T00:10:33;614.40;2432.00
54796;DHT22;40693;43.884;20.340;2023-07-22T00:12:58;614.50;2432.00
54796;DHT22;40693;43.884;20.340;2023-07-22T00:15:24;614.60;2432.00
54796;DHT22;40693;43.884;20.340;2023-07-22T00:17:51;614.70;2432.00
54796;DHT22;40693;43.884;20.340;2023-07-22T00:20:17;614.80;2432.00
54796;DHT22;40693;43.884;20.340;2023-07-22T00:22:42;614.80;2432.00
54796;DHT22;40693;43.884;20.340;2023-07-22T00:25:12;614.80;2432.00
54796;DHT22;40693;43.884;20.340;2023-07-22T00:27:38;614.80;2432.00
54796;DHT22;40693;43.884;20.340;2023-07-22T00:30:08;615.00;2432.00
54796;DHT22;40693;43.884;20.340;2023-07-22T00:32:34;615.00;2432.00
54796;DHT22;40693;43.884;20.340;2023-07-22T00:35:05;615.10;2432.00
54796;DHT22;40693;43.884;20.340;2023-07-22T00:37:32;615.10;2432.00
54796;DHT22;40693;43.884;20.340;2023-07-22T00:39:57;615.00;2432.00
54796;DHT22;40693;43.884;20.340;2023-07-22T00:42:23;615.00;2432.00
54796;DHT22;40693;43.884;20.340;2023-07-22T00:44:49;615.00;2432.00
54796;DHT22;40693;43.884;20.340;2023-07-22T00:47:16;615.10;2432.00
54796;DHT22;40693;43.884;20.340;2023-07-22T00:49:43;615.10;2432.00
54796;DHT22;40693;43.884;20.340;2023-07-22T00:52:09;615.20;2432.00
54796;DHT22;40693;43.884;20.340;2023-07-22T00:54:35;615.20;2432.00
54796;DHT22;40693;43.884;20.340;2023-07-22T00:57:01;615.30;2432.00
54796;DHT22;40693;43.884;20.340;2023-07-22T00:59:27;615.30;2432.00
54796;DHT22;40693;43.884;20.340;2023-07-22T01:01:53;615.30;2432.00
54796;DHT22;40693;43.884;20.340;2023-07-22T01:04:20;640.00;2432.00
54796;DHT22;40693;43.884;20.340;2023-07-22T01:06:48;615.20;2432.00
54796;DHT22;40693;43.884;20.340;2023-07-22T01:09:14;615.30;2432.00
54796;DHT22;40693;43.884;20.340;2023-07-22T01:11:40;640.00;2432.00
54796;DHT22;40693;43.884;20.340;2023-07-22T01:14:06;640.00;2432.00
54796;DHT22;40693;43.884;20.340;2023-07-22T01:16:33;640.10;2432.00
54796;DHT22;40693;43.884;20.340;2023-07-22T01:18:59;640.10;2432.00
54796;DHT22;40693;43.884;20.340;2023-07-22T01:21:26;640.20;2432.00
54796;DHT22;40693;43.884;20.340;2023-07-22T01:23:53;640.20;2432.00
54796;DHT22;40693;43.884;20.340;2023-07-22T01:26:20;640.20;2432.00
54796;DHT22;40693;43.884;20.340;2023-07-22T01:28:45;640.20;2432.00
54796;DHT22;40693;43.884;20.340;2023-07-22T01:31:11;640.20;2432.00
54796;DHT22;40693;43.884;20.340;2023-07-22T01:33:37;640.20;2432.00
54796;DHT22;40693;43.884;20.340;2023-07-22T01:36:03;640.20;2432.00
54796;DHT22;40693;43.884;20.340;2023-07-22T01:38:29;640.20;2432.00
54796;DHT22;40693;43.884;20.340;2023-07-22T01:40:56;640.20;2432.00
54796;DHT22;40693;43.884;20.340;2023-07-22T01:43:22;640.20;2432.00
54796;DHT22;40693;43.884;20.340;2023-07-22T01:45:48;640.20;2432.00
54796;DHT22;40693;43.884;20.340;2023-07-22T01:48:13;640.20;2432.00
54796;DHT22;40693;43.884;20.340;2023-07-22T01:50:39;640.20;2432.00
54796;DHT22;40693;43.884;20.340;2023-07-22T01:53:05;640.20;2432.00
54796;DHT22;40693;43.884;20.340;2023-07-22T01:55:31;640.10;2432.00
54796;DHT22;40693;43.884;20.340;2023-07-22T01:57:58;640.00;2432.00
54796;DHT22;40693;43.884;20.340;2023-07-22T02:00:24;615.30;2432.00
54796;DHT22;40693;43.884;20.340;2023-07-22T02:02:50;615.30;2432.00
54796;DHT22;40693;43.884;20.340;2023-07-22T02:05:15;615.30;2432.00
54796;DHT22;40693;43.884;20.340;2023-07-22T02:07:41;615.30;2432.00
54796;DHT22;40693;43.884;20.340;2023-07-22T02:10:07;615.20;2432.00
54796;DHT22;40693;43.884;20.340;2023-07-22T02:12:35;615.00;2432.00
54796;DHT22;40693;43.884;20.340;2023-07-22T02:15:00;615.00;2432.00
54796;DHT22;40693;43.884;20.340;2023-07-22T02:17:28;614.90;2432.00
54796;DHT22;40693;43.884;20.340;2023-07-22T02:19:53;614.80;2432.00
54796;DHT22;40693;43.884;20.340;2023-07-22T02:22:20;614.70;2432.00
54796;DHT22;40693;43.884;20.340;2023-07-22T02:24:45;614.80;2432.00
54796;DHT22;40693;43.884;20.340;2023-07-22T02:27:11;614.80;2432.00
54796;DHT22;40693;43.884;20.340;2023-07-22T02:29:38;614.80;2432.00
54796;DHT22;40693;43.884;20.340;2023-07-22T02:32:04;614.80;2432.00
54796;DHT22;40693;43.884;20.340;2023-07-22T02:34:30;614.80;2432.00
54796;DHT22;40693;43.884;20.340;2023-07-22T02:36:56;614.80;2432.00
54796;DHT22;40693;43.884;20.340;2023-07-22T02:39:21;614.90;2432.00
54796;DHT22;40693;43.884;20.340;2023-07-22T02:41:49;614.90;2432.00
54796;DHT22;40693;43.884;20.340;2023-07-22T02:44:14;614.90;2432.00
54796;DHT22;40693;43.884;20.340;2023-07-22T02:46:40;614.80;2432.00
54796;DHT22;40693;43.884;20.340;2023-07-22T02:49:06;614.80;2432.00
54796;DHT22;40693;43.884;20.340;2023-07-22T02:51:32;614.80;2432.00
54796;DHT22;40693;43.884;20.340;2023-07-22T02:53:58;614.80;2432.00
54796;DHT22;40693;43.884;20.340;2023-07-22T02:56:23;614.60;2432.00
54796;DHT22;40693;43.884;20.340;2023-07-22T02:58:50;614.40;2432.00
54796;DHT22;40693;43.884;20.340;2023-07-22T03:01:16;614.40;2432.00
54796;DHT22;40693;43.884;20.340;2023-07-22T03:03:41;614.40;2432.00
54796;DHT22;40693;43.884;20.340;2023-07-22T03:06:07;614.40;2432.00
54796;DHT22;40693;43.884;20.340;2023-07-22T03:08:34;589.70;2432.00
54796;DHT22;40693;43.884;20.340;2023-07-22T03:11:00;589.70;2432.00
54796;DHT22;40693;43.884;20.340;2023-07-22T03:13:26;589.70;2432.00
54796;DHT22;40693;43.884;20.340;2023-07-22T03:15:55;589.70;2432.00
54796;DHT22;40693;43.884;20.340;2023-07-22T03:18:21;589.70;2432.00
54796;DHT22;40693;43.884;20.340;2023-07-22T03:20:47;589.70;2432.00
54796;DHT22;40693;43.884;20.340;2023-07-22T03:23:12;589.60;2432.00
54796;DHT22;40693;43.884;20.340;2023-07-22T03:25:38;589.70;2432.00
54796;DHT22;40693;43.884;20.340;2023-07-22T03:28:05;589.60;2432.00
54796;DHT22;40693;43.884;20.340;2023-07-22T03:30:31;589.40;2432.00
54796;DHT22;40693;43.884;20.340;2023-07-22T03:32:57;589.30;2432.00
54796;DHT22;40693;43.884;20.340;2023-07-22T03:35:24;589.40;2432.00
54796;DHT22;40693;43.884;20.340;2023-07-22T03:37:50;589.40;2432.00
54796;DHT22;40693;43.884;20.340;2023-07-22T03:40:15;589.40;2432.00
54796;DHT22;40693;43.884;20.340;2023-07-22T03:42:53;589.40;2432.00
54796;DHT22;40693;43.884;20.340;2023-07-22T03:45:19;589.40;2432.00
54796;DHT22;40693;43.884;20.340;2023-07-22T03:47:46;589.40;2432.00
54796;DHT22;40693;43.884;20.340;2023-07-22T03:50:12;589.40;2432.00
54796;DHT22;40693;43.884;20.340;2023-07-22T03:52:38;589.30;2432.00
54796;DHT22;40693;43.884;20.340;2023-07-22T03:55:05;589.30;2432.00
54796;DHT22;40693;43.884;20.340;2023-07-22T03:57:31;589.30;2432.00
54796;DHT22;40693;43.884;20.340;2023-07-22T03:59:57;589.40;2432.00
54796;DHT22;40693;43.884;20.340;2023-07-22T04:02:23;589.50;2432.00
54796;DHT22;40693;43.884;20.340;2023-07-22T04:04:51;589.60;2432.00
54796;DHT22;40693;43.884;20.340;2023-07-22T04:07:17;589.60;2432.00
54796;DHT22;40693;43.884;20.340;2023-07-22T04:09:43;589.70;2432.00
54796;DHT22;40693;43.884;20.340;2023-07-22T04:12:10;589.70;2432.00
54796;DHT22;40693;43.884;20.340;2023-07-22T04:14:36;614.50;2432.00
54796;DHT22;40693;43.884;20.340;2023-07-22T04:17:02;614.60;2432.00
54796;DHT22;40693;43.884;20.340;2023-07-22T04:19:29;614.60;2432.00
54796;DHT22;40693;43.884;20.340;2023-07-22T04:21:55;614.70;2432.00
54796;DHT22;40693;43.884;20.340;2023-07-22T04:24:21;614.70;2432.00
54796;DHT22;40693;43.884;20.340;2023-07-22T04:26:47;614.70;2432.00
54796;DHT22;40693;43.884;20.340;2023-07-22T04:29:12;614.70;2432.00
54796;DHT22;40693;43.884;20.340;2023-07-22T04:31:39;614.80;2432.00
54796;DHT22;40693;43.884;20.340;2023-07-22T04:34:05;614.70;2432.00
54796;DHT22;40693;43.884;20.340;2023-07-22T04:36:31;614.70;2432.00
54796;DHT22;40693;43.884;20.340;2023-07-22T04:38:57;614.40;2432.00
54796;DHT22;40693;43.884;20.340;2023-07-22T04:41:23;589.50;2432.00
54796;DHT22;40693;43.884;20.340;2023-07-22T04:43:49;589.30;2432.00
54796;DHT22;40693;43.884;20.340;2023-07-22T04:46:16;589.20;2432.00
54796;DHT22;40693;43.884;20.340;2023-07-22T04:48:42;589.10;2432.00
54796;DHT22;40693;43.884;20.340;2023-07-22T04:51:08;589.00;2432.00
54796;DHT22;40693;43.884;20.340;2023-07-22T04:53:33;589.00;2432.00
54796;DHT22;40693;43.884;20.340;2023-07-22T04:55:59;589.20;2432.00
54796;DHT22;40693;43.884;20.340;2023-07-22T04:58:25;589.20;2432.00
54796;DHT22;40693;43.884;20.340;2023-07-22T05:00:53;589.30;2432.00
54796;DHT22;40693;43.884;20.340;2023-07-22T05:03:19;589.40;2432.00
54796;DHT22;40693;43.884;20.340;2023-07-22T05:05:54;589.50;2432.00
54796;DHT22;40693;43.884;20.340;2023-07-22T05:08:22;589.70;2432.00
54796;DHT22;40693;43.884;20.340;2023-07-22T05:10:48;614.40;2432.00
54796;DHT22;40693;43.884;20.340;2023-07-22T05:13:14;614.60;2432.00
54796;DHT22;40693;43.884;20.340;2023-07-22T05:15:39;614.70;2432.00
54796;DHT22;40693;43.884;20.340;2023-07-22T05:18:05;614.90;2432.00
54796;DHT22;40693;43.884;20.340;2023-07-22T05:20:31;614.80;2432.00
54796;DHT22;40693;43.884;20.340;2023-07-22T05:22:57;614.80;2432.00
54796;DHT22;40693;43.884;20.340;2023-07-22T05:25:23;614.80;2432.00
54796;DHT22;40693;43.884;20.340;2023-07-22T05:27:49;614.90;2432.00
54796;DHT22;40693;43.884;20.340;2023-07-22T05:30:15;615.10;2432.00
54796;DHT22;40693;43.884;20.340;2023-07-22T05:32:41;615.20;2432.00
54796;DHT22;40693;43.884;20.340;2023-07-22T05:35:07;615.30;2432.00
54796;DHT22;40693;43.884;20.340;2023-07-22T05:37:35;640.00;2432.00
54796;DHT22;40693;43.884;20.340;2023-07-22T05:40:01;640.10;2432.00
54796;DHT22;40693;43.884;20.340;2023-07-22T05:42:27;640.20;2432.00
54796;DHT22;40693;43.884;20.340;2023-07-22T05:44:54;640.20;2432.00
54796;DHT22;40693;43.884;20.340;2023-07-22T05:47:21;640.30;2432.00
54796;DHT22;40693;43.884;20.340;2023-07-22T05:49:47;640.50;2432.00
54796;DHT22;40693;43.884;20.340;2023-07-22T05:52:13;640.50;2432.00
54796;DHT22;40693;43.884;20.340;2023-07-22T05:54:38;640.60;2432.00
54796;DHT22;40693;43.884;20.340;2023-07-22T05:57:05;640.60;2432.00
54796;DHT22;40693;43.884;20.340;2023-07-22T05:59:31;640.50;2432.00
54796;DHT22;40693;43.884;20.340;2023-07-22T06:01:56;640.60;2432.00
54796;DHT22;40693;43.884;20.340;2023-07-22T06:04:22;640.60;2432.00
54796;DHT22;40693;43.884;20.340;2023-07-22T06:06:48;640.60;2432.00
54796;DHT22;40693;43.884;20.340;2023-07-22T06:09:29;640.60;2432.00
54796;DHT22;40693;43.884;20.340;2023-07-22T06:11:55;640.60;2432.00
54796;DHT22;40693;43.884;20.340;2023-07-22T06:14:20;640.70;2432.00
54796;DHT22;40693;43.884;20.340;2023-07-22T06:16:46;640.80;2432.00
54796;DHT22;40693;43.884;20.340;2023-07-22T06:19:12;665.60;2432.00
54796;DHT22;40693;43.884;20.340;2023-07-22T06:21:37;665.60;2432.00
54796;DHT22;40693;43.884;20.340;2023-07-22T06:24:03;665.70;2432.00
54796;DHT22;40693;43.884;20.340;2023-07-22T06:26:29;665.80;2432.00
54796;DHT22;40693;43.884;20.340;2023-07-22T06:28:54;665.70;2432.00
54796;DHT22;40693;43.884;20.340;2023-07-22T06:31:20;665.80;2432.00
54796;DHT22;40693;43.884;20.340;2023-07-22T06:33:47;665.80;2432.00
54796;DHT22;40693;43.884;20.340;2023-07-22T06:36:12;666.00;2432.00
54796;DHT22;40693;43.884;20.340;2023-07-22T06:38:38;666.00;2432.00
54796;DHT22;40693;43.884;20.340;2023-07-22T06:41:04;666.10;2432.00
54796;DHT22;40693;43.884;20.340;2023-07-22T06:43:29;666.10;2432.00
54796;DHT22;40693;43.884;20.340;2023-07-22T06:45:55;666.10;2432.00
54796;DHT22;40693;43.884;20.340;2023-07-22T06:48:21;666.10;2432.00
54796;DHT22;40693;43.884;20.340;2023-07-22T06:50:47;666.20;2432.00
54796;DHT22;40693;43.884;20.340;2023-07-22T06:53:16;666.20;2432.00
54796;DHT22;40693;43.884;20.340;2023-07-22T06:55:51;666.40;2432.00
54796;DHT22;40693;43.884;20.340;2023-07-22T06:58:21;666.40;2432.00
54796;DHT22;40693;43.884;20.340;2023-07-22T07:00:52;666.40;2432.00
54796;DHT22;40693;43.884;20.340;2023-07-22T07:03:17;666.40;2432.00
54796;DHT22;40693;43.884;20.340;2023-07-22T07:05:43;666.50;2432.00
54796;DHT22;40693;43.884;20.340;2023-07-22T07:08:09;666.50;2432.00
54796;DHT22;40693;43.884;20.340;2023-07-22T07:10:38;666.50;2432.00
54796;DHT22;40693;43.884;20.340;2023-07-22T07:13:05;666.50;2432.00
54796;DHT22;40693;43.884;20.340;2023-07-22T07:15:30;691.20;2432.00
54796;DHT22;40693;43.884;20.340;2023-07-22T07:17:56;691.30;2432.00
54796;DHT22;40693;43.884;20.340;2023-07-22T07:20:22;691.40;2432.00
54796;DHT22;40693;43.884;20.340;2023-07-22T07:22:48;691.50;2432.00
54796;DHT22;40693;43.884;20.340;2023-07-22T07:25:13;691.60;2432.00
54796;DHT22;40693;43.884;20.340;2023-07-22T07:27:40;691.70;2432.00
54796;DHT22;40693;43.884;20.340;2023-07-22T07:30:07;691.80;2432.00
54796;DHT22;40693;43.884;20.340;2023-07-22T07:32:34;691.90;2432.00
54796;DHT22;40693;43.884;20.340;2023-07-22T07:35:00;692.10;2432.00
54796;DHT22;40693;43.884;20.340;2023-07-22T07:37:26;716.80;2432.00
54796;DHT22;40693;43.884;20.340;2023-07-22T07:39:51;716.90;2432.00
54796;DHT22;40693;43.884;20.340;2023-07-22T07:42:17;717.00;2432.00
54796;DHT22;40693;43.884;20.340;2023-07-22T07:44:43;717.00;2432.00
54796;DHT22;40693;43.884;20.340;2023-07-22T07:47:08;716.90;2432.00
54796;DHT22;40693;43.884;20.340;2023-07-22T07:49:34;717.00;2432.00
54796;DHT22;40693;43.884;20.340;2023-07-22T07:52:00;717.00;2432.00
54796;DHT22;40693;43.884;20.340;2023-07-22T07:54:26;717.00;2432.00
54796;DHT22;40693;43.884;20.340;2023-07-22T07:56:51;717.10;2432.00
54796;DHT22;40693;43.884;20.340;2023-07-22T07:59:17;717.30;2432.00
54796;DHT22;40693;43.884;20.340;2023-07-22T08:01:43;717.40;2432.00
54796;DHT22;40693;43.884;20.340;2023-07-22T08:04:08;717.50;2432.00
54796;DHT22;40693;43.884;20.340;2023-07-22T08:06:34;717.30;2432.00
54796;DHT22;40693;43.884;20.340;2023-07-22T08:09:02;742.40;2432.00
54796;DHT22;40693;43.884;20.340;2023-07-22T08:11:28;742.50;2432.00
54796;DHT22;40693;43.884;20.340;2023-07-22T08:13:54;742.50;2432.00
54796;DHT22;40693;43.884;20.340;2023-07-22T08:16:20;742.60;2432.00
54796;DHT22;40693;43.884;20.340;2023-07-22T08:18:46;742.80;2432.00
54796;DHT22;40693;43.884;20.340;2023-07-22T08:21:12;742.90;2432.00
54796;DHT22;40693;43.884;20.340;2023-07-22T08:23:38;742.90;2432.00
54796;DHT22;40693;43.884;20.340;2023-07-22T08:26:04;743.00;2432.00
54796;DHT22;40693;43.884;20.340;2023-07-22T08:28:33;743.10;2432.00
54796;DHT22;40693;43.884;20.340;2023-07-22T08:30:59;743.10;2432.00
54796;DHT22;40693;43.884;20.340;2023-07-22T08:33:26;743.10;2432.00
54796;DHT22;40693;43.884;20.340;2023-07-22T08:35:52;743.30;2432.00
54796;DHT22;40693;43.884;20.340;2023-07-22T08:38:18;768.00;2432.00
54796;DHT22;40693;43.884;20.340;2023-07-22T08:40:43;768.10;2432.00
54796;DHT22;40693;43.884;20.340;2023-07-22T08:43:10;768.10;2432.00
54796;DHT22;40693;43.884;20.340;2023-07-22T08:45:38;768.20;2432.00
54796;DHT22;40693;43.884;20.340;2023-07-22T08:48:09;768.30;2432.00
54796;DHT22;40693;43.884;20.340;2023-07-22T08:51:02;768.40;2432.00
54796;DHT22;40693;43.884;20.340;2023-07-22T08:53:30;768.60;2432.00
54796;DHT22;40693;43.884;20.340;2023-07-22T08:55:56;768.60;2380.80
54796;DHT22;40693;43.884;20.340;2023-07-22T08:58:22;768.60;2432.00
54796;DHT22;40693;43.884;20.340;2023-07-22T09:00:49;768.70;2380.80
54796;DHT22;40693;43.884;20.340;2023-07-22T09:03:16;768.70;2099.20
54796;DHT22;40693;43.884;20.340;2023-07-22T09:05:42;768.70;2124.80
54796;DHT22;40693;43.884;20.340;2023-07-22T09:08:09;768.70;2022.40
54796;DHT22;40693;43.884;20.340;2023-07-22T09:10:35;768.90;2176.00
54796;DHT22;40693;43.884;20.340;2023-07-22T09:13:02;793.60;2304.00
54796;DHT22;40693;43.884;20.340;2023-07-22T09:15:28;793.70;2252.80
54796;DHT22;40693;43.884;20.340;2023-07-22T09:17:54;793.80;2304.00
54796;DHT22;40693;43.884;20.340;2023-07-22T09:20:21;793.90;2278.40
54796;DHT22;40693;43.884;20.340;2023-07-22T09:22:50;794.00;2124.80
54796;DHT22;40693;43.884;20.340;2023-07-22T09:25:21;794.10;2150.40
54796;DHT22;40693;43.884;20.340;2023-07-22T09:27:49;794.20;2176.00
54796;DHT22;40693;43.884;20.340;2023-07-22T09:30:35;794.30;2201.60
54796;DHT22;40693;43.884;20.340;2023-07-22T09:33:03;794.40;2201.60
54796;DHT22;40693;43.884;20.340;2023-07-22T09:35:42;819.20;2278.40
54796;DHT22;40693;43.884;20.340;2023-07-22T09:38:09;819.30;2227.20
54796;DHT22;40693;43.884;20.340;2023-07-22T09:40:34;819.30;2227.20
54796;DHT22;40693;43.884;20.340;2023-07-22T09:43:01;819.40;2099.20
54796;DHT22;40693;43.884;20.340;2023-07-22T09:45:30;819.30;2073.60
54796;DHT22;40693;43.884;20.340;2023-07-22T09:47:56;819.30;2150.40
54796;DHT22;40693;43.884;20.340;2023-07-22T09:50:25;819.40;2150.40
54796;DHT22;40693;43.884;20.340;2023-07-22T09:52:54;819.90;2176.00
54796;DHT22;40693;43.884;20.340;2023-07-22T09:55:24;819.70;2124.80
54796;DHT22;40693;43.884;20.340;2023-07-22T09:57:55;819.80;2022.40
54796;DHT22;40693;43.884;20.340;2023-07-22T10:00:23;820.00;2073.60
54796;DHT22;40693;43.884;20.340;2023-07-22T10:02:51;820.10;2048.00
54796;DHT22;40693;43.884;20.340;2023-07-22T10:05:21;820.10;2099.20
54796;DHT22;40693;43.884;20.340;2023-07-22T10:07:55;820.10;1971.20
54796;DHT22;40693;43.884;20.340;2023-07-22T10:10:25;844.90;1996.80
54796;DHT22;40693;43.884;20.340;2023-07-22T10:12:51;844.90;1996.80
54796;DHT22;40693;43.884;20.340;2023-07-22T10:15:18;845.10;2073.60
54796;DHT22;40693;43.884;20.340;2023-07-22T10:17:45;844.90;2022.40
54796;DHT22;40693;43.884;20.340;2023-07-22T10:20:12;845.20;2048.00
54796;DHT22;40693;43.884;20.340;2023-07-22T10:22:45;845.40;2022.40
54796;DHT22;40693;43.884;20.340;2023-07-22T10:25:14;845.50;1945.60
54796;DHT22;40693;43.884;20.340;2023-07-22T10:27:40;845.50;1971.20
54796;DHT22;40693;43.884;20.340;2023-07-22T10:30:11;845.50;2099.20
54796;DHT22;40693;43.884;20.340;2023-07-22T10:32:47;845.60;2073.60
54796;DHT22;40693;43.884;20.340;2023-07-22T10:37:55;845.60;2176.00
54796;DHT22;40693;43.884;20.340;2023-07-22T10:43:05;845.50;2073.60
54796;DHT22;40693;43.884;20.340;2023-07-22T10:45:37;845.50;2124.80
54796;DHT22;40693;43.884;20.340;2023-07-22T10:48:10;845.70;2124.80
54796;DHT22;40693;43.884;20.340;2023-07-22T10:50:48;845.70;2073.60
54796;DHT22;40693;43.884;20.340;2023-07-22T10:53:27;845.60;2099.20
54796;DHT22;40693;43.884;20.340;2023-07-22T11:01:24;845.70;2099.20
54796;DHT22;40693;43.884;20.340;2023-07-22T11:12:00;870.40;1996.80
54796;DHT22;40693;43.884;20.340;2023-07-22T11:14:28;870.50;1996.80
54796;DHT22;40693;43.884;20.340;2023-07-22T11:16:57;870.40;2048.00
54796;DHT22;40693;43.884;20.340;2023-07-22T11:19:24;845.70;2022.40
54796;DHT22;40693;43.884;20.340;2023-07-22T11:21:52;870.40;2048.00
54796;DHT22;40693;43.884;20.340;2023-07-22T11:24:19;845.70;1971.20
54796;DHT22;40693;43.884;20.340;2023-07-22T11:26:46;845.60;1971.20
54796;DHT22;40693;43.884;20.340;2023-07-22T11:29:12;845.70;1996.80
54796;DHT22;40693;43.884;20.340;2023-07-22T11:31:47;845.70;1971.20
54796;DHT22;40693;43.884;20.340;2023-07-22T11:34:15;845.70;1971.20
54796;DHT22;40693;43.884;20.340;2023-07-22T11:36:42;845.70;1996.80
54796;DHT22;40693;43.884;20.340;2023-07-22T11:39:10;870.40;2022.40
54796;DHT22;40693;43.884;20.340;2023-07-22T11:41:37;870.60;1996.80
54796;DHT22;40693;43.884;20.340;2023-07-22T11:44:11;870.70;2022.40
54796;DHT22;40693;43.884;20.340;2023-07-22T11:46:54;870.80;1945.60
54796;DHT22;40693;43.884;20.340;2023-07-22T11:49:31;870.90;1996.80
54796;DHT22;40693;43.884;20.340;2023-07-22T11:52:20;870.90;1920.00
54796;DHT22;40693;43.884;20.340;2023-07-22T11:54:46;871.00;1945.60
54796;DHT22;40693;43.884;20.340;2023-07-22T11:57:19;871.00;1945.60
54796;DHT22;40693;43.884;20.340;2023-07-22T11:59:50;870.80;1920.00
54796;DHT22;40693;43.884;20.340;2023-07-22T12:02:21;870.90;1971.20
54796;DHT22;40693;43.884;20.340;2023-07-22T12:05:21;871.00;1920.00
54796;DHT22;40693;43.884;20.340;2023-07-22T12:07:47;871.20;1894.40
54796;DHT22;40693;43.884;20.340;2023-07-22T12:10:15;896.00;1868.80
54796;DHT22;40693;43.884;20.340;2023-07-22T12:12:45;896.10;1894.40
54796;DHT22;40693;43.884;20.340;2023-07-22T12:15:19;896.00;1817.60
54796;DHT22;40693;43.884;20.340;2023-07-22T12:17:58;896.00;1868.80
54796;DHT22;40693;43.884;20.340;2023-07-22T12:20:31;896.00;1868.80
54796;DHT22;40693;43.884;20.340;2023-07-22T12:22:59;896.00;1843.20
54796;DHT22;40693;43.884;20.340;2023-07-22T12:25:25;871.20;1817.60
54796;DHT22;40693;43.884;20.340;2023-07-22T12:27:51;871.20;1868.80
54796;DHT22;40693;43.884;20.340;2023-07-22T12:30:17;896.00;1868.80
54796;DHT22;40693;43.884;20.340;2023-07-22T12:32:43;896.00;1843.20
54796;DHT22;40693;43.884;20.340;2023-07-22T12:35:09;896.00;1817.60
54796;DHT22;40693;43.884;20.340;2023-07-22T12:37:36;896.00;1868.80
54796;DHT22;40693;43.884;20.340;2023-07-22T12:40:04;896.00;1868.80
54796;DHT22;40693;43.884;20.340;2023-07-22T12:42:36;896.00;1817.60
54796;DHT22;40693;43.884;20.340;2023-07-22T12:45:03;896.10;1817.60
54796;DHT22;40693;43.884;20.340;2023-07-22T12:47:29;896.30;1843.20
54796;DHT22;40693;43.884;20.340;2023-07-22T12:49:55;896.30;1792.00
54796;DHT22;40693;43.884;20.340;2023-07-22T12:52:21;896.10;1817.60
54796;DHT22;40693;43.884;20.340;2023-07-22T12:54:47;896.10;1792.00
54796;DHT22;40693;43.884;20.340;2023-07-22T12:57:12;896.20;1792.00
54796;DHT22;40693;43.884;20.340;2023-07-22T12:59:38;896.30;1792.00
54796;DHT22;40693;43.884;20.340;2023-07-22T13:02:06;896.20;1817.60
54796;DHT22;40693;43.884;20.340;2023-07-22T13:04:32;896.10;1817.60
54796;DHT22;40693;43.884;20.340;2023-07-22T13:06:58;896.20;1817.60
54796;DHT22;40693;43.884;20.340;2023-07-22T13:09:23;896.20;1843.20
54796;DHT22;40693;43.884;20.340;2023-07-22T13:11:49;896.30;1817.60
54796;DHT22;40693;43.884;20.340;2023-07-22T13:14:15;896.40;1817.60
54796;DHT22;40693;43.884;20.340;2023-07-22T13:16:42;896.40;1792.00
54796;DHT22;40693;43.884;20.340;2023-07-22T13:19:07;896.40;1817.60
54796;DHT22;40693;43.884;20.340;2023-07-22T13:21:34;896.30;1792.00
54796;DHT22;40693;43.884;20.340;2023-07-22T13:24:00;896.00;1817.60
54796;DHT22;40693;43.884;20.340;2023-07-22T13:26:25;896.00;1792.00
54796;DHT22;40693;43.884;20.340;2023-07-22T13:28:51;896.00;1817.60
54796;DHT22;40693;43.884;20.340;2023-07-22T13:31:18;896.10;1817.60
54796;DHT22;40693;43.884;20.340;2023-07-22T13:33:44;896.20;1868.80
54796;DHT22;40693;43.884;20.340;2023-07-22T13:36:10;896.40;1868.80
54796;DHT22;40693;43.884;20.340;2023-07-22T13:38:36;896.30;1817.60
54796;DHT22;40693;43.884;20.340;2023-07-22T13:41:01;896.20;1843.20
54796;DHT22;40693;43.884;20.340;2023-07-22T13:43:27;896.20;1843.20
54796;DHT22;40693;43.884;20.340;2023-07-22T13:45:53;896.20;1817.60
54796;DHT22;40693;43.884;20.340;2023-07-22T13:48:19;896.40;1817.60
54796;DHT22;40693;43.884;20.340;2023-07-22T13:50:45;896.30;1843.20
54796;DHT22;40693;43.884;20.340;2023-07-22T13:53:10;896.20;1843.20
54796;DHT22;40693;43.884;20.340;2023-07-22T13:55:36;896.40;1843.20
54796;DHT22;40693;43.884;20.340;2023-07-22T13:58:02;896.20;1843.20
54796;DHT22;40693;43.884;20.340;2023-07-22T14:00:28;896.00;1843.20
54796;DHT22;40693;43.884;20.340;2023-07-22T14:02:54;871.00;1843.20
54796;DHT22;40693;43.884;20.340;2023-07-22T14:05:20;870.80;1894.40
54796;DHT22;40693;43.884;20.340;2023-07-22T14:07:45;870.50;1920.00
54796;DHT22;40693;43.884;20.340;2023-07-22T14:10:11;845.40;1945.60
54796;DHT22;40693;43.884;20.340;2023-07-22T14:12:37;845.00;1945.60
54796;DHT22;40693;43.884;20.340;2023-07-22T14:15:03;844.90;1971.20
54796;DHT22;40693;43.884;20.340;2023-07-22T14:17:31;820.10;1971.20
54796;DHT22;40693;43.884;20.340;2023-07-22T14:20:00;819.80;1996.80
54796;DHT22;40693;43.884;20.340;2023-07-22T14:22:26;819.30;2022.40
54796;DHT22;40693;43.884;20.340;2023-07-22T14:24:51;794.50;2022.40
54796;DHT22;40693;43.884;20.340;2023-07-22T14:27:18;794.00;2124.80
54796;DHT22;40693;43.884;20.340;2023-07-22T14:29:43;793.70;2252.80
54796;DHT22;40693;43.884;20.340;2023-07-22T14:32:09;768.90;2329.60
54796;DHT22;40693;43.884;20.340;2023-07-22T14:34:35;768.00;2432.00
54796;DHT22;40693;43.884;20.340;2023-07-22T14:37:01;717.40;2432.00
54796;DHT22;40693;43.884;20.340;2023-07-22T14:39:26;716.80;2432.00
54796;DHT22;40693;43.884;20.340;2023-07-22T14:41:52;691.50;2432.00
54796;DHT22;40693;43.884;20.340;2023-07-22T14:44:19;691.40;2432.00
54796;DHT22;40693;43.884;20.340;2023-07-22T14:46:44;691.20;2432.00
54796;DHT22;40693;43.884;20.340;2023-07-22T14:49:10;691.30;2432.00
54796;DHT22;40693;43.884;20.340;2023-07-22T14:51:36;666.40;2432.00
54796;DHT22;40693;43.884;20.340;2023-07-22T14:54:02;666.30;2432.00